createdAt,value
2022-10-23T00:01:45.518Z,161.70
2022-10-23T00:04:17.725Z,161.20
2022-10-23T00:06:46.619Z,167.90
2022-10-23T00:09:17.664Z,156.20
2022-10-23T00:11:51.028Z,174.50
2022-10-23T00:14:22.491Z,168.40
2022-10-23T00:16:50.842Z,165.80
2022-10-23T00:19:18.857Z,170.30
2022-10-23T00:21:46.909Z,181.30
2022-10-23T00:24:15.252Z,180.70
2022-10-23T00:26:43.713Z,187.10
2022-10-23T00:29:12.305Z,167.50
2022-10-23T00:31:40.342Z,169.10
2022-10-23T00:34:08.937Z,161.60
2022-10-23T00:36:38.190Z,156.40
2022-10-23T00:39:06.989Z,159.20
2022-10-23T00:41:35.132Z,161.00
2022-10-23T00:44:10.243Z,142.10
2022-10-23T00:46:40.203Z,163.40
2022-10-23T00:49:09.894Z,145.80
2022-10-23T00:51:49.033Z,142.30
2022-10-23T00:54:24.306Z,139.90
2022-10-23T00:59:25.145Z,131.20
2022-10-23T01:01:53.239Z,140.80
2022-10-23T01:04:22.682Z,137.40
2022-10-23T01:06:58.695Z,140.70
2022-10-23T01:12:11.846Z,139.70
2022-10-23T01:14:47.382Z,140.10
2022-10-23T01:17:44.436Z,134.80
2022-10-23T01:20:34.595Z,143.30
2022-10-23T01:23:22.273Z,136.30
2022-10-23T01:26:27.818Z,145.10
2022-10-23T01:29:03.512Z,129.40
2022-10-23T01:31:42.883Z,129.60
2022-10-23T01:34:16.514Z,141.60
2022-10-23T01:36:49.271Z,136.70
2022-10-23T01:39:27.870Z,135.20
2022-10-23T01:42:24.261Z,131.40
2022-10-23T01:45:07.173Z,134.20
2022-10-23T01:47:44.046Z,137.50
2022-10-23T01:50:15.601Z,127.90
2022-10-23T01:52:46.532Z,136.30
2022-10-23T01:55:15.485Z,132.90
2022-10-23T01:57:46.661Z,117.10
2022-10-23T02:00:17.837Z,120.20
2022-10-23T02:02:57.787Z,125.90
2022-10-23T02:05:32.092Z,126.70
2022-10-23T02:08:01.525Z,120.50
2022-10-23T02:10:40.378Z,113.30
2022-10-23T02:13:21.525Z,103.70
2022-10-23T02:16:01.988Z,111.60
2022-10-23T02:18:44.878Z,107.40
2022-10-23T02:21:17.877Z,118.50
2022-10-23T02:23:56.897Z,101.80
2022-10-23T02:26:33.646Z,104.20
2022-10-23T02:29:15.344Z,102.00
2022-10-23T02:31:46.094Z,100.20
2022-10-23T02:34:14.069Z,103.60
2022-10-23T02:36:42.866Z,97.40
2022-10-23T02:39:11.257Z,99.60
2022-10-23T02:41:42.592Z,101.90
2022-10-23T02:44:31.363Z,100.70
2022-10-23T02:47:23.606Z,95.70
2022-10-23T02:50:11.241Z,78.80
2022-10-23T02:52:54.095Z,101.30
2022-10-23T02:55:54.170Z,94.80
2022-10-23T02:58:39.334Z,104.10
2022-10-23T03:01:18.087Z,94.60
2022-10-23T03:03:53.532Z,98.90
2022-10-23T03:06:22.941Z,61.40
2022-10-23T03:08:58.200Z,115.10
2022-10-23T03:11:26.822Z,106.40
2022-10-23T03:13:56.371Z,107.60
2022-10-23T03:16:24.724Z,110.30
2022-10-23T03:18:55.441Z,120.10
2022-10-23T03:21:24.354Z,110.90
2022-10-23T03:23:54.088Z,107.40
2022-10-23T03:26:28.862Z,107.00
2022-10-23T03:28:56.950Z,107.70
2022-10-23T03:31:25.002Z,100.60
2022-10-23T03:33:56.610Z,111.00
2022-10-23T03:36:24.913Z,100.70
2022-10-23T03:38:53.959Z,97.50
2022-10-23T03:41:22.225Z,98.10
2022-10-23T03:43:50.244Z,99.70
2022-10-23T03:46:18.170Z,100.20
2022-10-23T03:48:46.251Z,104.20
2022-10-23T03:51:14.362Z,100.40
2022-10-23T03:53:42.310Z,99.50
2022-10-23T03:56:10.389Z,102.20
2022-10-23T03:58:38.363Z,99.50
2022-10-23T04:01:06.347Z,96.90
2022-10-23T04:03:34.350Z,87.60
2022-10-23T04:06:02.448Z,95.80
2022-10-23T04:08:30.570Z,93.30
2022-10-23T04:10:58.894Z,93.40
2022-10-23T04:13:43.159Z,94.00
2022-10-23T04:16:11.356Z,84.50
2022-10-23T04:18:42.256Z,90.40
2022-10-23T04:21:12.087Z,84.70
2022-10-23T04:23:40.236Z,81.00
2022-10-23T04:26:13.863Z,73.20
2022-10-23T04:28:41.974Z,72.10
2022-10-23T04:31:10.582Z,74.00
2022-10-23T04:33:41.940Z,79.50
2022-10-23T04:36:10.775Z,78.70
2022-10-23T04:38:40.461Z,71.20
2022-10-23T04:41:08.651Z,72.30
2022-10-23T04:43:36.996Z,73.60
2022-10-23T04:46:05.936Z,64.70
2022-10-23T04:48:35.617Z,65.80
2022-10-23T04:51:41.783Z,63.80
2022-10-23T04:54:37.876Z,65.40
2022-10-23T04:57:24.566Z,63.70
2022-10-23T05:00:14.963Z,63.30
2022-10-23T05:02:50.823Z,69.70
2022-10-23T05:05:19.195Z,67.10
2022-10-23T05:07:57.496Z,74.90
2022-10-23T05:10:31.525Z,69.20
2022-10-23T05:13:07.632Z,80.80
2022-10-23T05:15:35.921Z,62.30
2022-10-23T05:18:13.397Z,63.70
2022-10-23T05:20:45.105Z,71.50
2022-10-23T05:23:16.751Z,75.30
2022-10-23T05:25:53.660Z,62.50
2022-10-23T05:28:22.886Z,62.80
2022-10-23T05:30:51.295Z,69.50
2022-10-23T05:33:19.855Z,64.70
2022-10-23T05:35:50.984Z,64.90
2022-10-23T05:38:19.465Z,37.00
2022-10-23T05:40:47.688Z,62.30
2022-10-23T05:43:18.976Z,59.50
2022-10-23T05:46:07.778Z,60.30
2022-10-23T05:48:51.085Z,63.70
2022-10-23T05:51:39.522Z,57.90
2022-10-23T05:54:27.756Z,60.30
2022-10-23T05:59:51.526Z,62.20
2022-10-23T06:02:42.935Z,52.50
2022-10-23T06:05:35.910Z,50.60
2022-10-23T06:08:20.071Z,43.60
2022-10-23T06:10:50.031Z,47.80
2022-10-23T06:13:18.097Z,40.40
2022-10-23T06:15:46.398Z,38.80
2022-10-23T06:18:20.857Z,36.50
2022-10-23T06:21:05.368Z,37.10
2022-10-23T06:23:35.448Z,44.70
2022-10-23T06:26:29.455Z,35.30
2022-10-23T06:29:06.748Z,43.00
2022-10-23T06:31:35.039Z,39.40
2022-10-23T06:34:06.164Z,47.80
2022-10-23T06:36:34.453Z,41.50
2022-10-23T06:39:21.277Z,45.10
2022-10-23T06:42:07.888Z,41.40
2022-10-23T06:45:06.252Z,23.10
2022-10-23T06:47:54.193Z,42.40
2022-10-23T06:50:42.467Z,36.40
2022-10-23T06:53:13.625Z,35.40
2022-10-23T06:55:50.022Z,28.80
2022-10-23T06:58:21.201Z,34.30
2022-10-23T07:01:13.006Z,31.50
2022-10-23T07:03:42.654Z,24.70
2022-10-23T07:06:11.592Z,21.70
2022-10-23T07:08:40.457Z,26.10
2022-10-23T07:11:34.839Z,23.10
2022-10-23T07:14:03.028Z,29.90
2022-10-23T07:16:32.151Z,35.50
2022-10-23T07:19:02.028Z,32.70
2022-10-23T07:21:35.247Z,32.70
2022-10-23T07:24:17.446Z,36.90
2022-10-23T07:26:45.775Z,32.70
2022-10-23T07:29:15.234Z,45.10
2022-10-23T07:31:43.626Z,37.30
2022-10-23T07:34:27.877Z,41.50
2022-10-23T07:37:12.306Z,38.60
2022-10-23T07:39:40.387Z,39.60
2022-10-23T07:42:10.235Z,38.30
2022-10-23T07:44:38.283Z,33.50
2022-10-23T07:47:06.463Z,32.00
2022-10-23T07:49:34.681Z,33.80
2022-10-23T07:52:05.471Z,28.20
2022-10-23T07:54:43.059Z,28.00
2022-10-23T07:57:21.600Z,26.50
2022-10-23T08:02:58.024Z,22.90
2022-10-23T08:05:26.353Z,24.70
2022-10-23T08:07:58.856Z,22.30
2022-10-23T08:10:26.983Z,25.30
2022-10-23T08:12:55.190Z,28.40
2022-10-23T08:15:32.107Z,20.00
2022-10-23T08:18:04.632Z,26.50
2022-10-23T08:20:48.118Z,22.10
2022-10-23T08:23:18.627Z,18.40
2022-10-23T08:25:47.191Z,22.70
2022-10-23T08:28:16.669Z,21.30
2022-10-23T08:30:52.513Z,21.10
2022-10-23T08:33:20.869Z,17.20
2022-10-23T08:35:49.302Z,18.40
2022-10-23T08:38:20.673Z,17.50
2022-10-23T08:40:49.682Z,16.30
2022-10-23T08:43:57.011Z,15.50
2022-10-23T08:46:42.356Z,16.40
2022-10-23T08:49:54.077Z,15.80
2022-10-23T08:52:25.523Z,17.10
2022-10-23T08:54:58.195Z,16.70
2022-10-23T08:57:39.993Z,18.30
2022-10-23T09:00:18.483Z,20.00
2022-10-23T09:02:49.821Z,14.80
2022-10-23T09:05:20.863Z,15.60
2022-10-23T09:08:17.857Z,19.40
2022-10-23T09:11:07.471Z,19.60
2022-10-23T09:13:38.551Z,17.40
2022-10-23T09:16:22.947Z,17.70
2022-10-23T09:18:52.337Z,19.60
2022-10-23T09:21:22.014Z,22.10
2022-10-23T09:23:49.960Z,19.70
2022-10-23T09:26:19.234Z,20.00
2022-10-23T09:28:53.073Z,17.00
2022-10-23T09:31:21.173Z,21.20
2022-10-23T09:34:01.171Z,20.20
2022-10-23T09:36:29.935Z,19.10
2022-10-23T09:39:00.448Z,17.70
2022-10-23T09:41:28.389Z,18.20
2022-10-23T09:44:08.765Z,18.90
2022-10-23T09:46:38.105Z,16.50
2022-10-23T09:49:08.035Z,15.90
2022-10-23T09:51:42.038Z,23.40
2022-10-23T09:54:16.852Z,23.10
2022-10-23T09:59:24.169Z,12.70
2022-10-23T10:01:58.318Z,15.30
2022-10-23T10:04:55.824Z,12.50
2022-10-23T10:07:27.345Z,12.20
2022-10-23T10:09:56.888Z,12.60
2022-10-23T10:12:53.299Z,11.10
2022-10-23T10:15:31.744Z,10.90
2022-10-23T10:18:22.996Z,11.00
2022-10-23T10:21:20.888Z,11.40
2022-10-23T10:24:13.838Z,10.20
2022-10-23T10:27:11.877Z,10.30
2022-10-23T10:29:48.982Z,10.80
2022-10-23T10:32:20.541Z,11.30
2022-10-23T10:35:14.985Z,9.30
2022-10-23T10:37:57.400Z,8.30
2022-10-23T10:40:43.746Z,8.60
2022-10-23T10:43:39.561Z,8.70
2022-10-23T10:46:43.120Z,8.50
2022-10-23T10:49:19.942Z,10.70
2022-10-23T10:52:11.176Z,11.30
2022-10-23T10:54:57.937Z,17.20
2022-10-23T10:57:44.332Z,9.80
2022-10-23T11:00:18.908Z,12.50
2022-10-23T11:03:09.686Z,10.70
2022-10-23T11:05:46.785Z,14.00
2022-10-23T11:08:40.199Z,14.30
2022-10-23T11:11:38.007Z,10.90
2022-10-23T11:14:14.672Z,9.80
2022-10-23T11:16:48.260Z,10.00
2022-10-23T11:19:25.708Z,11.50
2022-10-23T11:21:59.573Z,8.10
2022-10-23T11:24:58.521Z,10.40
2022-10-23T11:27:31.701Z,10.00
2022-10-23T11:32:51.931Z,9.00
2022-10-23T11:35:57.467Z,8.10
2022-10-23T11:38:30.467Z,8.20
2022-10-23T11:41:02.702Z,8.80
2022-10-23T11:43:48.655Z,6.00
2022-10-23T11:46:26.495Z,8.10
2022-10-23T11:48:56.209Z,8.00
2022-10-23T11:51:31.686Z,8.00
2022-10-23T11:54:12.216Z,7.10
2022-10-23T11:57:08.076Z,6.20
2022-10-23T11:59:41.371Z,6.00
2022-10-23T12:02:36.931Z,5.20
2022-10-23T12:05:25.415Z,6.40
2022-10-23T12:07:59.446Z,6.20
2022-10-23T12:10:31.298Z,6.30
2022-10-23T12:13:02.007Z,7.90
2022-10-23T12:15:32.535Z,5.40
2022-10-23T12:18:29.930Z,5.80
2022-10-23T12:21:00.223Z,6.50
2022-10-23T12:24:00.506Z,5.30
2022-10-23T12:26:50.653Z,5.10
2022-10-23T12:29:37.001Z,6.50
2022-10-23T12:34:51.754Z,5.20
2022-10-23T12:37:29.144Z,4.50
2022-10-23T12:39:59.290Z,4.20
2022-10-23T12:42:29.701Z,4.20
2022-10-23T12:44:59.909Z,4.90
2022-10-23T12:47:30.168Z,4.40
2022-10-23T12:49:58.220Z,3.90
2022-10-23T12:52:26.332Z,3.70
2022-10-23T12:54:54.362Z,4.10
2022-10-23T12:57:26.564Z,6.90
2022-10-23T13:00:11.136Z,4.20
2022-10-23T13:02:39.255Z,5.10
2022-10-23T13:05:13.435Z,5.90
2022-10-23T13:07:46.392Z,5.00
2022-10-23T13:10:20.123Z,4.60
2022-10-23T13:13:07.009Z,4.80
2022-10-23T13:15:45.152Z,5.60
2022-10-23T13:18:15.011Z,7.70
2022-10-23T13:20:56.820Z,5.00
2022-10-23T13:23:33.299Z,3.80
2022-10-23T13:26:02.687Z,4.20
2022-10-23T13:28:43.939Z,5.30
2022-10-23T13:31:12.580Z,4.10
2022-10-23T13:33:48.090Z,4.30
2022-10-23T13:36:16.819Z,4.30
2022-10-23T13:38:46.221Z,4.70
2022-10-23T13:41:21.471Z,4.90
2022-10-23T13:43:49.578Z,4.60
2022-10-23T13:46:23.352Z,6.00
2022-10-23T13:48:51.924Z,5.50
2022-10-23T13:51:25.437Z,6.60
2022-10-23T13:53:55.452Z,5.30
2022-10-23T13:56:25.589Z,6.00
2022-10-23T13:58:53.973Z,5.80
2022-10-23T14:01:32.695Z,5.80
2022-10-23T14:04:00.952Z,6.20
2022-10-23T14:08:57.362Z,6.90
2022-10-23T14:11:25.993Z,6.40
2022-10-23T14:13:54.035Z,7.90
2022-10-23T14:16:22.468Z,8.60
2022-10-23T14:18:50.489Z,6.20
2022-10-23T14:21:20.693Z,12.60
2022-10-23T14:23:50.438Z,6.60
2022-10-23T14:26:22.201Z,7.00
2022-10-23T14:28:53.187Z,7.10
2022-10-23T14:31:21.993Z,9.40
2022-10-23T14:33:56.205Z,7.00
2022-10-23T14:36:28.244Z,6.90
2022-10-23T14:39:02.798Z,6.70
2022-10-23T14:41:30.755Z,6.50
2022-10-23T14:43:58.808Z,6.90
2022-10-23T14:46:28.155Z,10.60
2022-10-23T14:48:59.877Z,8.10
2022-10-23T14:51:32.201Z,7.70
2022-10-23T14:54:02.562Z,7.40
2022-10-23T14:56:33.395Z,6.80
2022-10-23T14:59:04.800Z,8.30
2022-10-23T15:01:36.106Z,9.30
2022-10-23T15:04:04.853Z,8.00
2022-10-23T15:06:33.749Z,8.30
2022-10-23T15:09:03.068Z,8.00
2022-10-23T15:11:31.771Z,9.00
2022-10-23T15:14:00.727Z,8.70
2022-10-23T15:16:28.786Z,8.20
2022-10-23T15:18:56.940Z,8.60
2022-10-23T15:21:25.315Z,8.30
2022-10-23T15:23:54.873Z,9.70
2022-10-23T15:26:24.071Z,8.00
2022-10-23T15:28:57.685Z,8.70
2022-10-23T15:31:43.579Z,8.40
2022-10-23T15:34:16.422Z,9.80
2022-10-23T15:36:47.121Z,9.20
2022-10-23T15:39:18.112Z,13.40
2022-10-23T15:41:47.344Z,9.30
2022-10-23T15:44:17.637Z,9.40
2022-10-23T15:46:45.870Z,12.70
2022-10-23T15:49:14.117Z,11.20
2022-10-23T15:51:42.812Z,11.40
2022-10-23T15:54:16.766Z,11.80
2022-10-23T15:56:50.457Z,10.80
2022-10-23T15:59:21.052Z,18.30
2022-10-23T16:01:50.027Z,10.70
2022-10-23T16:04:18.370Z,10.70
2022-10-23T16:06:46.763Z,14.60
2022-10-23T16:09:15.840Z,17.90
2022-10-23T16:11:44.451Z,17.60
2022-10-23T16:14:15.122Z,15.10
2022-10-23T16:16:43.210Z,12.10
2022-10-23T16:19:12.149Z,12.90
2022-10-23T16:21:40.447Z,12.00
2022-10-23T16:24:09.146Z,9.60
2022-10-23T16:26:37.939Z,10.50
2022-10-23T16:29:08.132Z,11.30
2022-10-23T16:31:36.707Z,13.40
2022-10-23T16:34:05.568Z,17.20
2022-10-23T16:36:34.568Z,17.10
2022-10-23T16:39:15.413Z,16.00
2022-10-23T16:42:02.115Z,14.90
2022-10-23T16:47:21.425Z,12.00
2022-10-23T16:49:49.419Z,9.60
2022-10-23T16:52:17.444Z,11.70
2022-10-23T16:54:45.561Z,10.60
2022-10-23T16:57:13.600Z,12.90
2022-10-23T16:59:41.589Z,11.90
2022-10-23T17:02:11.888Z,12.40
2022-10-23T17:04:40.613Z,13.00
2022-10-23T17:07:08.809Z,11.90
2022-10-23T17:09:38.621Z,12.90
2022-10-23T17:12:07.012Z,14.20
2022-10-23T17:14:35.034Z,13.50
2022-10-23T17:17:03.800Z,14.90
2022-10-23T17:19:44.135Z,15.20
2022-10-23T17:22:13.469Z,14.30
2022-10-23T17:24:42.592Z,13.50
2022-10-23T17:27:10.922Z,14.40
2022-10-23T17:29:39.490Z,13.80
2022-10-23T17:32:08.276Z,13.50
2022-10-23T17:34:36.453Z,13.60
2022-10-23T17:37:05.059Z,14.30
2022-10-23T17:39:33.110Z,15.10
2022-10-23T17:42:01.050Z,13.90
2022-10-23T17:44:29.396Z,14.30
2022-10-23T17:46:57.439Z,15.50
2022-10-23T17:49:25.816Z,14.40
2022-10-23T17:51:55.873Z,14.20
2022-10-23T17:54:26.486Z,14.10
2022-10-23T17:56:55.573Z,14.10
2022-10-23T17:59:23.727Z,17.60
2022-10-23T18:01:51.934Z,15.70
2022-10-23T18:04:21.416Z,19.50
2022-10-23T18:06:53.069Z,24.00
2022-10-23T18:09:22.751Z,29.10
2022-10-23T18:11:52.876Z,31.80
2022-10-23T18:14:21.740Z,25.30
2022-10-23T18:16:52.634Z,30.90
2022-10-23T18:19:20.833Z,26.10
2022-10-23T18:21:49.869Z,16.90
2022-10-23T18:24:18.992Z,17.40
2022-10-23T18:26:48.379Z,13.80
2022-10-23T18:29:17.597Z,13.60
2022-10-23T18:31:48.385Z,13.20
2022-10-23T18:34:22.013Z,13.00
2022-10-23T18:36:51.991Z,10.70
2022-10-23T18:39:22.819Z,11.10
2022-10-23T18:41:53.427Z,16.30
2022-10-23T18:44:22.936Z,13.60
2022-10-23T18:46:51.971Z,11.10
2022-10-23T18:49:20.449Z,14.10
2022-10-23T18:51:50.220Z,12.30
2022-10-23T18:54:20.558Z,13.50
2022-10-23T18:56:48.813Z,10.90
2022-10-23T18:59:20.157Z,10.90
2022-10-23T19:01:49.210Z,14.20
2022-10-23T19:04:18.589Z,10.80
2022-10-23T19:06:49.520Z,11.70
2022-10-23T19:09:18.096Z,11.00
2022-10-23T19:11:46.297Z,11.80
2022-10-23T19:14:14.625Z,13.10
2022-10-23T19:17:23.328Z,12.20
2022-10-23T19:19:59.704Z,11.80
2022-10-23T19:22:30.146Z,17.10
2022-10-23T19:25:05.628Z,10.60
2022-10-23T19:27:33.711Z,11.60
2022-10-23T19:30:05.211Z,13.40
2022-10-23T19:32:33.612Z,16.40
2022-10-23T19:35:01.731Z,15.70
2022-10-23T19:37:29.890Z,15.50
2022-10-23T19:39:58.537Z,21.80
2022-10-23T19:44:54.586Z,16.00
2022-10-23T19:47:22.812Z,15.40
2022-10-23T19:49:52.015Z,17.40
2022-10-23T19:52:22.334Z,19.00
2022-10-23T19:54:51.367Z,18.70
2022-10-23T19:57:22.499Z,19.40
2022-10-23T19:59:52.925Z,19.20
2022-10-23T20:02:22.108Z,21.30
2022-10-23T20:04:51.477Z,19.20
2022-10-23T20:07:19.527Z,20.90
2022-10-23T20:09:47.668Z,19.90
2022-10-23T20:12:15.781Z,24.00
2022-10-23T20:14:44.412Z,21.60
2022-10-23T20:17:12.434Z,28.20
2022-10-23T20:19:40.557Z,21.70
2022-10-23T20:22:08.569Z,25.40
2022-10-23T20:24:36.651Z,19.80
2022-10-23T20:27:04.604Z,22.30
2022-10-23T20:29:32.594Z,22.80
2022-10-23T20:32:00.640Z,21.00
2022-10-23T20:34:28.674Z,24.70
2022-10-23T20:36:56.666Z,25.60
2022-10-23T20:39:25.775Z,28.50
2022-10-23T20:41:57.060Z,26.80
2022-10-23T20:44:25.027Z,32.70
2022-10-23T20:46:53.384Z,29.30
2022-10-23T20:49:22.689Z,31.10
2022-10-23T20:51:55.158Z,29.50
2022-10-23T20:54:25.823Z,26.60
2022-10-23T20:56:53.827Z,31.70
2022-10-23T20:59:21.925Z,27.90
2022-10-23T21:01:53.486Z,33.60
2022-10-23T21:04:25.088Z,33.30
2022-10-23T21:07:09.427Z,31.10
2022-10-23T21:09:38.750Z,27.90
2022-10-23T21:12:07.313Z,31.70
2022-10-23T21:14:36.241Z,32.00
2022-10-23T21:17:05.250Z,31.30
2022-10-23T21:19:33.213Z,27.90
2022-10-23T21:22:04.319Z,31.90
2022-10-23T21:24:32.351Z,30.40
2022-10-23T21:27:00.402Z,27.40
2022-10-23T21:29:28.406Z,26.00
2022-10-23T21:31:59.398Z,25.70
2022-10-23T21:34:28.341Z,22.80
2022-10-23T21:37:13.404Z,28.90
2022-10-23T21:39:43.578Z,24.20
2022-10-23T21:42:12.953Z,25.90
2022-10-23T21:44:40.907Z,23.20
2022-10-23T21:47:08.953Z,20.20
2022-10-23T21:49:37.273Z,21.10
2022-10-23T21:52:05.263Z,22.00
2022-10-23T21:54:33.351Z,21.90
2022-10-23T21:57:03.333Z,18.90
2022-10-23T21:59:35.571Z,16.40
2022-10-23T22:02:04.377Z,19.30
2022-10-23T22:04:32.891Z,16.60
2022-10-23T22:07:03.148Z,15.10
2022-10-23T22:09:32.341Z,14.20
2022-10-23T22:12:01.169Z,12.90
2022-10-23T22:14:29.311Z,13.30
2022-10-23T22:16:58.691Z,14.40
2022-10-23T22:19:26.948Z,13.80
2022-10-23T22:21:55.579Z,14.20
2022-10-23T22:24:23.911Z,12.60
2022-10-23T22:26:54.636Z,10.20
2022-10-23T22:29:27.589Z,11.90
2022-10-23T22:31:56.791Z,9.00
2022-10-23T22:37:17.194Z,9.00
2022-10-23T22:39:45.284Z,9.90
2022-10-23T22:42:13.361Z,7.50
2022-10-23T22:44:41.425Z,8.10
2022-10-23T22:47:09.614Z,7.70
2022-10-23T22:49:38.565Z,9.10
2022-10-23T22:52:06.677Z,9.30
2022-10-23T22:54:34.841Z,9.10
2022-10-23T22:57:02.875Z,11.40
2022-10-23T22:59:30.888Z,8.30
2022-10-23T23:01:58.860Z,8.20
2022-10-23T23:04:43.094Z,8.10
2022-10-23T23:07:12.784Z,8.50
2022-10-23T23:09:44.089Z,8.60
2022-10-23T23:12:14.187Z,11.80
2022-10-23T23:14:43.354Z,7.60
2022-10-23T23:17:12.178Z,7.90
2022-10-23T23:19:40.288Z,7.60
2022-10-23T23:22:08.568Z,8.20
2022-10-23T23:24:36.651Z,9.00
2022-10-23T23:27:04.678Z,7.70
2022-10-23T23:29:32.798Z,7.50
2022-10-23T23:32:00.946Z,8.30
2022-10-23T23:34:29.464Z,6.80
2022-10-23T23:36:57.889Z,7.80
2022-10-23T23:39:26.477Z,8.40
2022-10-23T23:41:54.852Z,9.20
2022-10-23T23:44:23.070Z,7.20
2022-10-23T23:46:51.139Z,7.80
2022-10-23T23:49:19.112Z,6.10
2022-10-23T23:51:47.267Z,6.00
2022-10-23T23:54:15.505Z,8.10
2022-10-23T23:56:43.519Z,8.10
2022-10-23T23:59:11.558Z,11.70
